Time;durP1;ratioP1;P1;durP2;ratioP2;P2;SDS_P1;SDS_P2;PMS_P1;PMS_P2;Temp;Humidity;BMP_temperature;BMP_pressure;BME280_temperature;BME280_humidity;BME280_pressure;Samples;Min_cycle;Max_cycle;Signal;HPM_P1;HPM_P2
2022/02/19 00:00:52;;;;;;;;;;;19.70;51.10;;;;;;5059963;28;19970;-57
2022/02/19 00:03:17;;;;;;;;;;;19.70;50.90;;;;;;5051764;28;19967;-59
2022/02/19 00:05:43;;;;;;;;;;;19.70;51.00;;;;;;5042778;28;19944;-60
2022/02/19 00:08:13;;;;;;;;;;;19.70;50.90;;;;;;5057369;28;19917;-58
2022/02/19 00:10:41;;;;;;;;;;;19.70;50.90;;;;;;5055145;28;19919;-59
2022/02/19 00:13:07;;;;;;;;;;;19.70;50.80;;;;;;5026172;28;20263;-56
2022/02/19 00:15:32;;;;;;;;;;;19.70;51.00;;;;;;5044246;28;19916;-60
2022/02/19 00:17:58;;;;;;;;;;;19.70;50.90;;;;;;5047888;28;19912;-58
2022/02/19 00:20:23;;;;;;;;;;;19.80;51.10;;;;;;5060864;28;19989;-63
2022/02/19 00:22:49;;;;;;;;;;;19.70;50.90;;;;;;5057959;28;20366;-60
2022/02/19 00:25:14;;;;;;;;;;;19.70;50.90;;;;;;5049897;28;19917;-60
2022/02/19 00:27:40;;;;;;;;;;;19.70;50.90;;;;;;5051884;28;19921;-57
2022/02/19 00:30:05;;;;;;;;;;;19.70;51.00;;;;;;5049238;28;19921;-59
2022/02/19 00:32:31;;;;;;;;;;;19.70;51.00;;;;;;5051521;28;19921;-59
2022/02/19 00:34:57;;;;;;;;;;;19.70;51.10;;;;;;5051810;28;19972;-60
2022/02/19 00:37:22;;;;;;;;;;;19.70;51.10;;;;;;5051851;28;19916;-62
2022/02/19 00:39:48;;;;;;;;;;;19.70;51.10;;;;;;5057643;28;20535;-55
2022/02/19 00:42:13;;;;;;;;;;;19.70;51.00;;;;;;5044205;28;19944;-57
2022/02/19 00:44:39;;;;;;;;;;;19.70;51.20;;;;;;5049609;28;20404;-62
2022/02/19 00:47:04;;;;;;;;;;;19.70;51.10;;;;;;5030577;28;19917;-57
2022/02/19 00:49:29;;;;;;;;;;;19.70;51.00;;;;;;5050571;28;19999;-56
2022/02/19 00:51:55;;;;;;;;;;;19.70;51.00;;;;;;5046079;28;19913;-59
2022/02/19 00:54:20;;;;;;;;;;;19.70;51.10;;;;;;5054992;28;19991;-56
2022/02/19 00:56:46;;;;;;;;;;;19.70;51.00;;;;;;5057851;28;19924;-57
2022/02/19 00:59:11;;;;;;;;;;;19.70;51.00;;;;;;5056627;28;19917;-64
2022/02/19 01:01:37;;;;;;;;;;;19.70;51.10;;;;;;5053688;28;20378;-59
2022/02/19 01:04:02;;;;;;;;;;;19.70;51.00;;;;;;5053618;28;19913;-58
2022/02/19 01:06:28;;;;;;;;;;;19.70;51.00;;;;;;5021293;28;19962;-61
2022/02/19 01:08:54;;;;;;;;;;;19.70;51.00;;;;;;5057701;28;19955;-60
2022/02/19 01:11:20;;;;;;;;;;;19.70;51.10;;;;;;5052838;28;19913;-59
2022/02/19 01:13:48;;;;;;;;;;;19.70;51.00;;;;;;5058594;28;19928;-60
2022/02/19 01:16:14;;;;;;;;;;;19.70;51.10;;;;;;5054813;28;19916;-57
2022/02/19 01:18:39;;;;;;;;;;;19.70;51.10;;;;;;5051450;28;19998;-61
2022/02/19 01:21:05;;;;;;;;;;;19.70;51.10;;;;;;5030880;28;20417;-57
2022/02/19 01:23:30;;;;;;;;;;;19.80;51.10;;;;;;5047981;28;19916;-63
2022/02/19 01:25:56;;;;;;;;;;;19.70;51.00;;;;;;5050588;28;20393;-60
2022/02/19 01:28:21;;;;;;;;;;;19.70;50.90;;;;;;5037350;28;19913;-59
2022/02/19 01:30:47;;;;;;;;;;;19.70;50.90;;;;;;5050582;28;19923;-61
2022/02/19 01:33:12;;;;;;;;;;;19.70;50.90;;;;;;5038781;28;20521;-62
2022/02/19 01:35:37;;;;;;;;;;;19.70;51.00;;;;;;5058112;28;19920;-60
2022/02/19 01:38:03;;;;;;;;;;;19.70;50.90;;;;;;5049338;28;19919;-61
2022/02/19 01:40:29;;;;;;;;;;;19.70;50.90;;;;;;5052062;28;19944;-58
2022/02/19 01:42:54;;;;;;;;;;;19.70;50.90;;;;;;5066155;28;19944;-62
2022/02/19 01:45:20;;;;;;;;;;;19.70;51.00;;;;;;5050808;28;19917;-58
2022/02/19 01:47:45;;;;;;;;;;;19.70;50.90;;;;;;5056038;28;19920;-58
2022/02/19 01:50:11;;;;;;;;;;;19.70;50.90;;;;;;5055522;28;21025;-59
2022/02/19 01:52:37;;;;;;;;;;;19.70;50.90;;;;;;5054511;28;20000;-61
2022/02/19 01:55:03;;;;;;;;;;;19.70;50.90;;;;;;5043486;28;19920;-59
2022/02/19 01:57:28;;;;;;;;;;;19.70;50.90;;;;;;5038730;28;19917;-60
2022/02/19 01:59:53;;;;;;;;;;;19.70;50.90;;;;;;5047148;28;19963;-60
2022/02/19 02:02:19;;;;;;;;;;;19.70;50.90;;;;;;5062756;28;19912;-60
2022/02/19 02:04:45;;;;;;;;;;;19.70;50.80;;;;;;5052629;28;19912;-61
2022/02/19 02:07:10;;;;;;;;;;;19.70;50.90;;;;;;5045317;28;20715;-60
2022/02/19 02:09:36;;;;;;;;;;;19.70;50.80;;;;;;5045767;28;19935;-60
2022/02/19 02:12:02;;;;;;;;;;;19.70;50.90;;;;;;5046130;28;20094;-60
2022/02/19 02:14:28;;;;;;;;;;;19.70;50.90;;;;;;5047351;28;20421;-60
2022/02/19 02:16:53;;;;;;;;;;;19.60;50.80;;;;;;5058278;28;19917;-59
2022/02/19 02:19:19;;;;;;;;;;;19.70;50.90;;;;;;5060042;28;19912;-60
2022/02/19 02:21:44;;;;;;;;;;;19.60;50.90;;;;;;5053098;28;19913;-60
2022/02/19 02:24:10;;;;;;;;;;;19.70;50.90;;;;;;5059953;28;20415;-60
2022/02/19 02:26:35;;;;;;;;;;;19.60;51.00;;;;;;5035246;28;19913;-60
2022/02/19 02:29:01;;;;;;;;;;;19.60;50.90;;;;;;5030860;28;19919;-60
2022/02/19 02:31:26;;;;;;;;;;;19.60;50.80;;;;;;5053419;28;19921;-60
2022/02/19 02:33:52;;;;;;;;;;;19.60;50.80;;;;;;5053809;28;19966;-59
2022/02/19 02:36:17;;;;;;;;;;;19.60;50.80;;;;;;5054714;28;20012;-62
2022/02/19 02:38:43;;;;;;;;;;;19.70;50.80;;;;;;5051269;28;19919;-62
2022/02/19 02:41:08;;;;;;;;;;;19.60;50.80;;;;;;5048017;28;19913;-60
2022/02/19 02:43:34;;;;;;;;;;;19.60;51.30;;;;;;5054094;28;19921;-60
2022/02/19 02:45:59;;;;;;;;;;;19.60;50.70;;;;;;5052472;28;19994;-60
2022/02/19 02:48:25;;;;;;;;;;;19.60;50.70;;;;;;5052663;28;19920;-60
2022/02/19 02:50:51;;;;;;;;;;;19.60;50.80;;;;;;5054613;28;19943;-59
2022/02/19 02:53:17;;;;;;;;;;;19.60;50.70;;;;;;5043560;28;19923;-60
2022/02/19 02:55:42;;;;;;;;;;;19.60;50.70;;;;;;5049846;28;20004;-64
2022/02/19 02:58:08;;;;;;;;;;;19.60;50.70;;;;;;5053591;28;19920;-60
2022/02/19 03:00:33;;;;;;;;;;;19.60;50.60;;;;;;5058474;28;19919;-60
2022/02/19 03:02:58;;;;;;;;;;;19.60;50.60;;;;;;5058667;28;20475;-60
2022/02/19 03:05:25;;;;;;;;;;;19.60;50.60;;;;;;5029918;28;19913;-60
2022/02/19 03:07:50;;;;;;;;;;;19.60;50.60;;;;;;5045375;28;19955;-60
2022/02/19 03:10:17;;;;;;;;;;;19.60;50.50;;;;;;5055038;28;20408;-59
2022/02/19 03:12:43;;;;;;;;;;;19.60;50.50;;;;;;5056530;28;19920;-61
2022/02/19 03:15:09;;;;;;;;;;;19.60;50.60;;;;;;5053728;28;19916;-60
2022/02/19 03:17:35;;;;;;;;;;;19.60;50.60;;;;;;5047996;28;19917;-61
2022/02/19 03:20:01;;;;;;;;;;;19.50;50.50;;;;;;5047472;28;19924;-60
2022/02/19 03:22:26;;;;;;;;;;;19.60;50.60;;;;;;5052491;28;19942;-60
2022/02/19 03:24:52;;;;;;;;;;;19.50;50.50;;;;;;5052796;28;19913;-60
2022/02/19 03:27:17;;;;;;;;;;;19.60;50.50;;;;;;5048321;28;20561;-60
2022/02/19 03:29:43;;;;;;;;;;;19.60;50.50;;;;;;5049996;28;19917;-65
2022/02/19 03:32:08;;;;;;;;;;;19.50;50.50;;;;;;5052285;28;20393;-59
2022/02/19 03:34:34;;;;;;;;;;;19.50;50.40;;;;;;5054197;28;19996;-60
2022/02/19 03:36:59;;;;;;;;;;;19.50;50.40;;;;;;5050315;28;19940;-59
2022/02/19 03:39:24;;;;;;;;;;;19.50;50.50;;;;;;5052212;28;19912;-59
2022/02/19 03:41:50;;;;;;;;;;;19.50;50.40;;;;;;5045261;28;19913;-60
2022/02/19 03:44:15;;;;;;;;;;;19.50;50.50;;;;;;5052393;28;20363;-61
2022/02/19 03:46:41;;;;;;;;;;;19.50;50.40;;;;;;5064515;28;19912;-60
2022/02/19 03:49:06;;;;;;;;;;;19.50;50.40;;;;;;5048760;28;19916;-60
2022/02/19 03:51:32;;;;;;;;;;;19.50;50.40;;;;;;5052471;28;19962;-60
2022/02/19 03:53:57;;;;;;;;;;;19.50;50.40;;;;;;5052032;28;20503;-60
2022/02/19 03:56:23;;;;;;;;;;;19.50;50.40;;;;;;5052133;28;19970;-61
2022/02/19 03:58:48;;;;;;;;;;;19.50;50.40;;;;;;5045830;28;19920;-59
2022/02/19 04:01:14;;;;;;;;;;;19.50;50.40;;;;;;5057385;28;19913;-59
2022/02/19 04:03:39;;;;;;;;;;;19.50;50.40;;;;;;5030050;28;19912;-62
2022/02/19 04:06:05;;;;;;;;;;;19.50;50.40;;;;;;5049814;28;19917;-60
2022/02/19 04:08:30;;;;;;;;;;;19.50;50.40;;;;;;5050124;28;19941;-60
2022/02/19 04:10:56;;;;;;;;;;;19.50;50.40;;;;;;5036079;28;20063;-61
2022/02/19 04:13:21;;;;;;;;;;;19.50;50.30;;;;;;5057324;22;19924;-62
2022/02/19 04:15:47;;;;;;;;;;;19.50;50.30;;;;;;5072172;28;19924;-60
2022/02/19 04:18:12;;;;;;;;;;;19.50;50.30;;;;;;5083002;28;20296;-60
2022/02/19 04:20:38;;;;;;;;;;;19.50;50.30;;;;;;5075027;28;19916;-60
2022/02/19 04:23:03;;;;;;;;;;;19.50;50.30;;;;;;5069004;28;19927;-60
2022/02/19 04:25:29;;;;;;;;;;;19.50;50.30;;;;;;5078722;28;20373;-62
2022/02/19 04:27:55;;;;;;;;;;;19.50;50.20;;;;;;5066474;28;19990;-62
2022/02/19 04:30:20;;;;;;;;;;;19.50;50.20;;;;;;5069910;28;20013;-62
2022/02/19 04:32:45;;;;;;;;;;;19.50;50.30;;;;;;5073579;28;19913;-60
2022/02/19 04:35:11;;;;;;;;;;;19.50;50.30;;;;;;5078759;28;19912;-60
2022/02/19 04:37:36;;;;;;;;;;;19.50;50.30;;;;;;5074474;28;20129;-62
2022/02/19 04:40:03;;;;;;;;;;;19.50;50.30;;;;;;5071862;28;19912;-60
2022/02/19 04:42:28;;;;;;;;;;;19.50;50.20;;;;;;5074298;28;19966;-60
2022/02/19 04:44:54;;;;;;;;;;;19.50;50.20;;;;;;5060593;28;19913;-59
2022/02/19 04:47:19;;;;;;;;;;;19.50;50.20;;;;;;5080763;28;19969;-61
2022/02/19 04:49:44;;;;;;;;;;;19.50;50.20;;;;;;5073200;28;20377;-60
2022/02/19 04:52:10;;;;;;;;;;;19.50;50.20;;;;;;5068213;28;19938;-58
2022/02/19 04:54:35;;;;;;;;;;;19.50;50.20;;;;;;5063559;28;19916;-61
2022/02/19 04:57:01;;;;;;;;;;;19.50;50.20;;;;;;5070682;28;20372;-62
2022/02/19 04:59:26;;;;;;;;;;;19.50;50.20;;;;;;5071954;28;19912;-60
2022/02/19 05:01:52;;;;;;;;;;;19.50;50.20;;;;;;5079300;28;19912;-59
2022/02/19 05:04:19;;;;;;;;;;;19.50;50.10;;;;;;5064933;28;19916;-60
2022/02/19 05:06:44;;;;;;;;;;;19.50;50.20;;;;;;5063262;28;19966;-60
2022/02/19 05:09:10;;;;;;;;;;;19.50;50.20;;;;;;5066651;28;20324;-60
2022/02/19 05:11:35;;;;;;;;;;;19.50;50.20;;;;;;5076705;28;20110;-60
2022/02/19 05:14:01;;;;;;;;;;;19.50;50.10;;;;;;5069052;28;19947;-60
2022/02/19 05:16:26;;;;;;;;;;;19.50;50.20;;;;;;5069363;28;19924;-60
2022/02/19 05:18:52;;;;;;;;;;;19.50;50.20;;;;;;5065308;28;19919;-62
2022/02/19 05:21:17;;;;;;;;;;;19.50;50.20;;;;;;5071889;28;20270;-61
2022/02/19 05:23:43;;;;;;;;;;;19.50;50.20;;;;;;5075794;28;19920;-59
2022/02/19 05:26:08;;;;;;;;;;;19.50;50.20;;;;;;5074252;28;19916;-60
2022/02/19 05:28:33;;;;;;;;;;;19.50;50.20;;;;;;5072825;28;20014;-61
2022/02/19 05:31:01;;;;;;;;;;;19.50;50.20;;;;;;5075841;28;19913;-61
2022/02/19 05:33:26;;;;;;;;;;;19.50;50.20;;;;;;5067159;28;20350;-59
2022/02/19 05:35:51;;;;;;;;;;;19.50;50.10;;;;;;5067034;28;19926;-60
2022/02/19 05:38:17;;;;;;;;;;;19.50;50.10;;;;;;5072581;28;19977;-60
2022/02/19 05:40:42;;;;;;;;;;;19.50;50.10;;;;;;5053029;28;19925;-61
2022/02/19 05:43:08;;;;;;;;;;;19.50;50.10;;;;;;5064043;28;19936;-61
2022/02/19 05:45:33;;;;;;;;;;;19.50;50.10;;;;;;5073005;28;20262;-58
2022/02/19 05:47:59;;;;;;;;;;;19.50;50.00;;;;;;5068477;28;19959;-60
2022/02/19 05:50:25;;;;;;;;;;;19.50;50.10;;;;;;5080014;28;20616;-60
2022/02/19 05:52:50;;;;;;;;;;;19.50;50.00;;;;;;5086804;28;19913;-60
2022/02/19 05:55:16;;;;;;;;;;;19.50;50.00;;;;;;5069280;28;19916;-60
2022/02/19 05:57:41;;;;;;;;;;;19.50;50.00;;;;;;5067790;28;19916;-61
2022/02/19 06:00:07;;;;;;;;;;;19.50;50.00;;;;;;5056142;28;19916;-61
2022/02/19 06:02:33;;;;;;;;;;;19.50;50.00;;;;;;5054219;28;19920;-61
2022/02/19 06:04:58;;;;;;;;;;;19.50;50.00;;;;;;5075045;28;20512;-60
2022/02/19 06:07:23;;;;;;;;;;;19.50;49.90;;;;;;5074596;28;19919;-61
2022/02/19 06:09:49;;;;;;;;;;;19.50;49.90;;;;;;5061044;28;19913;-61
2022/02/19 06:12:14;;;;;;;;;;;19.50;50.00;;;;;;5066120;28;19916;-61
2022/02/19 06:14:40;;;;;;;;;;;19.50;50.00;;;;;;5054386;28;20332;-60
2022/02/19 06:17:05;;;;;;;;;;;19.50;50.00;;;;;;5073722;28;19916;-61
2022/02/19 06:19:31;;;;;;;;;;;19.50;50.00;;;;;;5079140;28;20376;-61
2022/02/19 06:21:56;;;;;;;;;;;19.60;49.90;;;;;;5070056;28;19912;-60
2022/02/19 06:24:22;;;;;;;;;;;19.50;49.90;;;;;;5073754;28;20445;-62
2022/02/19 06:26:47;;;;;;;;;;;19.60;49.80;;;;;;5065659;28;19916;-59
2022/02/19 06:29:12;;;;;;;;;;;19.50;50.00;;;;;;5075670;28;19923;-60
2022/02/19 06:31:38;;;;;;;;;;;19.60;50.20;;;;;;5079384;28;19935;-60
2022/02/19 06:34:03;;;;;;;;;;;19.50;50.10;;;;;;5085579;28;19920;-59
2022/02/19 06:36:29;;;;;;;;;;;19.60;50.20;;;;;;5052274;28;19917;-60
2022/02/19 06:38:54;;;;;;;;;;;19.60;50.20;;;;;;5070764;28;19912;-61
2022/02/19 06:41:20;;;;;;;;;;;19.60;50.10;;;;;;5071446;28;19939;-59
2022/02/19 06:43:45;;;;;;;;;;;19.60;50.10;;;;;;5079126;28;19944;-61
2022/02/19 06:46:11;;;;;;;;;;;19.60;50.10;;;;;;5080733;28;19912;-60
2022/02/19 06:48:36;;;;;;;;;;;19.60;50.10;;;;;;5080296;28;19916;-60
2022/02/19 06:51:01;;;;;;;;;;;19.60;50.00;;;;;;5061152;28;19912;-61
2022/02/19 06:53:27;;;;;;;;;;;19.60;50.00;;;;;;5080508;28;20545;-61
2022/02/19 06:55:52;;;;;;;;;;;19.60;49.90;;;;;;5076912;28;19916;-62
2022/02/19 06:58:18;;;;;;;;;;;19.60;49.90;;;;;;5064823;28;19970;-58
2022/02/19 07:00:44;;;;;;;;;;;19.60;49.90;;;;;;5072836;28;19913;-60
2022/02/19 07:03:09;;;;;;;;;;;19.60;49.80;;;;;;5073507;28;19913;-61
2022/02/19 07:05:34;;;;;;;;;;;19.60;49.80;;;;;;5071161;28;19920;-60
2022/02/19 07:08:00;;;;;;;;;;;19.60;49.80;;;;;;5082656;28;20529;-61
2022/02/19 07:10:27;;;;;;;;;;;19.60;49.70;;;;;;5072130;28;20049;-61
2022/02/19 07:12:53;;;;;;;;;;;19.60;49.70;;;;;;5074768;28;19912;-61
2022/02/19 07:15:20;;;;;;;;;;;19.60;49.70;;;;;;5072415;28;19977;-62
2022/02/19 07:17:52;;;;;;;;;;;19.50;49.60;;;;;;5065309;28;19925;-61
2022/02/19 07:20:20;;;;;;;;;;;19.50;49.50;;;;;;5074792;28;19923;-61
2022/02/19 07:22:45;;;;;;;;;;;19.60;49.60;;;;;;5077402;28;20397;-59
2022/02/19 07:25:11;;;;;;;;;;;19.60;49.50;;;;;;5070960;28;20092;-62
2022/02/19 07:27:40;;;;;;;;;;;19.60;49.50;;;;;;5071224;28;19913;-60
2022/02/19 07:30:06;;;;;;;;;;;19.60;49.50;;;;;;5075072;28;19927;-61
2022/02/19 07:32:31;;;;;;;;;;;19.60;49.50;;;;;;5068267;28;19968;-61
2022/02/19 07:34:58;;;;;;;;;;;19.50;49.30;;;;;;5064810;28;19912;-60
2022/02/19 07:37:23;;;;;;;;;;;19.60;49.50;;;;;;5066938;28;19942;-62
2022/02/19 07:39:49;;;;;;;;;;;19.60;49.50;;;;;;5077946;28;20426;-61
2022/02/19 07:42:15;;;;;;;;;;;19.60;50.10;;;;;;5081401;28;19912;-59
2022/02/19 07:44:40;;;;;;;;;;;19.50;49.40;;;;;;5071742;28;19980;-59
2022/02/19 07:47:06;;;;;;;;;;;19.60;49.50;;;;;;5070792;28;20079;-61
2022/02/19 08:00:28;;;;;;;;;;;19.50;49.80;;;;;;5075238;28;19920;-61
2022/02/19 08:02:54;;;;;;;;;;;19.50;50.10;;;;;;5068416;28;19921;-59
2022/02/19 08:05:20;;;;;;;;;;;19.60;50.20;;;;;;5073915;28;19919;-60
2022/02/19 08:07:45;;;;;;;;;;;19.60;50.20;;;;;;5064558;28;20276;-60
2022/02/19 08:10:11;;;;;;;;;;;19.60;50.20;;;;;;5077509;28;19965;-58
2022/02/19 08:12:36;;;;;;;;;;;19.60;50.20;;;;;;5073217;28;19924;-59
2022/02/19 08:15:02;;;;;;;;;;;19.50;50.00;;;;;;5076424;28;19920;-59
2022/02/19 08:17:29;;;;;;;;;;;19.50;50.10;;;;;;5062494;28;20711;-60
2022/02/19 08:19:55;;;;;;;;;;;19.50;50.00;;;;;;5075292;28;20288;-61
2022/02/19 08:22:21;;;;;;;;;;;19.50;50.60;;;;;;5072385;28;19916;-60
2022/02/19 08:24:46;;;;;;;;;;;19.60;50.00;;;;;;5083664;28;19912;-59
2022/02/19 08:27:11;;;;;;;;;;;19.60;49.90;;;;;;5072988;28;19912;-60
2022/02/19 08:29:37;;;;;;;;;;;19.50;49.90;;;;;;5066309;28;20373;-59
2022/02/19 08:32:03;;;;;;;;;;;19.50;49.80;;;;;;5056952;28;19948;-59
2022/02/19 08:34:28;;;;;;;;;;;19.50;49.80;;;;;;5067467;28;19916;-59
2022/02/19 08:36:56;;;;;;;;;;;19.50;49.70;;;;;;5059326;28;19967;-61
2022/02/19 08:39:24;;;;;;;;;;;19.50;49.80;;;;;;5068585;28;19912;-60
2022/02/19 08:41:50;;;;;;;;;;;19.50;49.80;;;;;;5081903;28;20361;-61
2022/02/19 08:44:15;;;;;;;;;;;19.50;49.70;;;;;;5074968;28;19919;-64
2022/02/19 08:46:41;;;;;;;;;;;19.50;49.80;;;;;;5070626;28;20447;-61
2022/02/19 08:49:06;;;;;;;;;;;19.50;49.70;;;;;;5070284;28;20344;-61
2022/02/19 08:51:32;;;;;;;;;;;19.50;49.70;;;;;;5062447;28;19920;-61
2022/02/19 08:53:57;;;;;;;;;;;19.50;49.70;;;;;;5062773;28;19919;-59
2022/02/19 08:56:23;;;;;;;;;;;19.50;49.70;;;;;;5082917;28;20321;-59
2022/02/19 08:58:48;;;;;;;;;;;19.50;49.50;;;;;;5066007;28;19916;-57
2022/02/19 09:01:13;;;;;;;;;;;19.50;49.60;;;;;;5074631;28;19912;-60
2022/02/19 09:03:39;;;;;;;;;;;19.50;49.60;;;;;;5079651;28;19920;-58
2022/02/19 09:06:04;;;;;;;;;;;19.50;49.60;;;;;;5066055;28;19917;-61
2022/02/19 09:08:30;;;;;;;;;;;19.50;49.60;;;;;;5075623;28;19918;-60
2022/02/19 09:10:55;;;;;;;;;;;19.50;49.70;;;;;;5071848;28;19917;-61
2022/02/19 09:13:21;;;;;;;;;;;19.50;50.40;;;;;;5073695;28;19920;-60
2022/02/19 09:15:48;;;;;;;;;;;19.50;49.90;;;;;;5077148;28;19965;-64
2022/02/19 09:18:13;;;;;;;;;;;19.50;49.90;;;;;;5072242;28;19913;-61
2022/02/19 09:20:39;;;;;;;;;;;19.50;49.90;;;;;;5084981;28;20526;-61
2022/02/19 09:23:04;;;;;;;;;;;19.50;49.90;;;;;;5066965;28;19920;-60
2022/02/19 09:25:29;;;;;;;;;;;19.50;50.40;;;;;;5083270;28;19912;-60
2022/02/19 09:27:55;;;;;;;;;;;19.50;49.90;;;;;;5077902;28;19974;-61
2022/02/19 09:30:21;;;;;;;;;;;19.40;49.90;;;;;;5074405;28;20385;-59
2022/02/19 09:32:46;;;;;;;;;;;19.50;50.00;;;;;;5077088;28;19912;-64
2022/02/19 09:35:15;;;;;;;;;;;19.40;49.90;;;;;;5082313;28;19919;-60
2022/02/19 09:37:40;;;;;;;;;;;19.50;50.00;;;;;;5060278;28;19920;-60
2022/02/19 09:40:06;;;;;;;;;;;19.50;50.20;;;;;;5069243;28;19921;-61
2022/02/19 09:42:31;;;;;;;;;;;19.50;51.00;;;;;;5064538;28;20598;-61
2022/02/19 09:44:57;;;;;;;;;;;19.50;51.10;;;;;;5068039;28;19973;-60
2022/02/19 09:47:26;;;;;;;;;;;19.50;50.90;;;;;;5065936;28;19912;-61
2022/02/19 09:49:51;;;;;;;;;;;19.50;51.10;;;;;;5070438;28;20485;-59
2022/02/19 09:52:17;;;;;;;;;;;19.50;50.60;;;;;;5069690;28;19919;-60
2022/02/19 09:54:42;;;;;;;;;;;19.40;50.50;;;;;;5075843;28;19912;-61
2022/02/19 09:57:08;;;;;;;;;;;19.40;50.40;;;;;;5071998;28;19916;-59
2022/02/19 09:59:34;;;;;;;;;;;19.40;50.10;;;;;;5083082;28;19920;-61
2022/02/19 10:02:00;;;;;;;;;;;19.40;50.10;;;;;;5070230;28;19917;-62
2022/02/19 10:04:25;;;;;;;;;;;19.40;50.00;;;;;;5076867;28;19912;-60
2022/02/19 10:06:52;;;;;;;;;;;19.40;49.90;;;;;;5077343;28;20449;-59
2022/02/19 10:09:18;;;;;;;;;;;19.40;49.90;;;;;;5072534;28;19981;-59
2022/02/19 10:11:47;;;;;;;;;;;19.40;50.00;;;;;;5083778;28;19922;-60
2022/02/19 10:14:18;;;;;;;;;;;19.40;49.80;;;;;;5069915;28;19964;-61
2022/02/19 10:16:44;;;;;;;;;;;19.40;49.80;;;;;;5068827;28;20293;-61
2022/02/19 10:19:09;;;;;;;;;;;19.50;49.90;;;;;;5059657;28;19912;-62
2022/02/19 10:21:35;;;;;;;;;;;19.50;49.80;;;;;;5052624;28;20505;-61
2022/02/19 10:24:00;;;;;;;;;;;19.50;50.00;;;;;;5084722;28;19912;-61
2022/02/19 10:26:27;;;;;;;;;;;19.50;50.10;;;;;;5050113;28;19913;-61
2022/02/19 10:29:11;;;;;;;;;;;19.50;50.20;;;;;;5071468;28;19918;-61
2022/02/19 10:31:36;;;;;;;;;;;19.50;50.10;;;;;;5085681;28;19912;-60
2022/02/19 10:34:08;;;;;;;;;;;19.50;50.30;;;;;;5057704;28;20331;-58
2022/02/19 10:36:40;;;;;;;;;;;19.50;50.20;;;;;;5074666;28;20031;-58
2022/02/19 10:39:08;;;;;;;;;;;19.60;50.50;;;;;;5065998;28;19919;-60
2022/02/19 10:41:34;;;;;;;;;;;19.50;50.50;;;;;;5073385;28;19917;-59
2022/02/19 10:44:17;;;;;;;;;;;19.60;50.50;;;;;;5065781;28;19916;-61
2022/02/19 10:46:43;;;;;;;;;;;19.60;50.60;;;;;;5084459;22;20597;-58
2022/02/19 10:49:11;;;;;;;;;;;19.60;50.50;;;;;;5045091;28;19926;-55
2022/02/19 10:51:36;;;;;;;;;;;19.60;50.60;;;;;;5054945;28;19935;-56
2022/02/19 10:54:02;;;;;;;;;;;19.60;50.50;;;;;;5052733;28;20412;-60
2022/02/19 10:56:28;;;;;;;;;;;19.70;50.50;;;;;;5073239;28;20012;-59
2022/02/19 10:58:57;;;;;;;;;;;19.70;50.50;;;;;;5075343;28;19913;-59
2022/02/19 11:01:22;;;;;;;;;;;19.70;50.40;;;;;;5059309;28;19920;-55
2022/02/19 11:03:47;;;;;;;;;;;19.70;50.50;;;;;;5070004;28;20641;-58
2022/02/19 11:06:13;;;;;;;;;;;19.70;50.30;;;;;;5079169;28;19912;-54
2022/02/19 11:08:39;;;;;;;;;;;19.80;50.10;;;;;;5054365;28;20007;-55
2022/02/19 11:11:05;;;;;;;;;;;19.80;50.30;;;;;;5049474;28;20292;-57
2022/02/19 11:13:31;;;;;;;;;;;19.80;50.30;;;;;;5045851;28;19920;-60
2022/02/19 11:15:57;;;;;;;;;;;19.80;50.20;;;;;;5049822;28;19991;-56
2022/02/19 11:18:24;;;;;;;;;;;19.80;50.20;;;;;;5078096;28;19922;-57
2022/02/19 11:20:50;;;;;;;;;;;19.80;50.20;;;;;;5044275;28;20394;-55
2022/02/19 11:23:15;;;;;;;;;;;19.80;50.20;;;;;;5054831;28;19919;-58
2022/02/19 11:25:41;;;;;;;;;;;19.90;50.20;;;;;;5046997;28;20282;-59
2022/02/19 11:28:08;;;;;;;;;;;19.80;50.10;;;;;;5057728;28;19912;-57
2022/02/19 11:30:37;;;;;;;;;;;19.80;50.10;;;;;;5056331;28;20497;-55
2022/02/19 11:33:02;;;;;;;;;;;19.80;50.10;;;;;;5079490;28;20384;-54
2022/02/19 11:35:31;;;;;;;;;;;19.80;50.00;;;;;;5076431;28;19912;-57
2022/02/19 11:37:56;;;;;;;;;;;19.80;50.10;;;;;;5063121;28;19955;-56
2022/02/19 11:40:23;;;;;;;;;;;19.70;49.80;;;;;;5047399;28;19944;-56
2022/02/19 11:42:49;;;;;;;;;;;19.80;49.80;;;;;;5057197;28;19920;-57
2022/02/19 11:45:16;;;;;;;;;;;19.70;49.70;;;;;;5056890;28;19916;-56
2022/02/19 11:47:41;;;;;;;;;;;19.70;49.60;;;;;;5050536;28;19913;-57
2022/02/19 11:50:20;;;;;;;;;;;19.70;49.80;;;;;;5062209;28;19916;-58
2022/02/19 11:53:05;;;;;;;;;;;19.70;49.60;;;;;;5079220;28;20361;-57
2022/02/19 11:55:31;;;;;;;;;;;19.80;49.60;;;;;;5072259;28;19912;-58
2022/02/19 11:58:00;;;;;;;;;;;19.80;49.50;;;;;;5064623;28;19927;-57
2022/02/19 12:00:46;;;;;;;;;;;19.80;49.40;;;;;;5068011;28;19912;-56
2022/02/19 12:03:18;;;;;;;;;;;19.80;49.10;;;;;;5056292;28;19919;-57
2022/02/19 12:06:02;;;;;;;;;;;19.80;48.60;;;;;;5068460;28;20000;-57
2022/02/19 12:08:27;;;;;;;;;;;19.80;48.20;;;;;;5062984;28;20570;-60
2022/02/19 12:11:05;;;;;;;;;;;19.80;47.00;;;;;;5057844;28;19923;-60
2022/02/19 12:13:41;;;;;;;;;;;19.80;45.90;;;;;;5057069;28;19920;-53
2022/02/19 12:16:26;;;;;;;;;;;19.80;45.30;;;;;;5078240;28;20425;-56
2022/02/19 12:18:53;;;;;;;;;;;19.80;44.90;;;;;;5079931;28;19912;-60
2022/02/19 12:21:31;;;;;;;;;;;19.80;44.50;;;;;;5075834;28;19919;-55
2022/02/19 12:24:15;;;;;;;;;;;19.70;44.70;;;;;;5065857;28;20015;-54
2022/02/19 12:26:55;;;;;;;;;;;19.70;44.90;;;;;;5059708;28;19912;-55
2022/02/19 12:29:22;;;;;;;;;;;19.70;45.20;;;;;;5074025;28;20392;-57
2022/02/19 12:32:01;;;;;;;;;;;19.70;45.20;;;;;;5077392;28;19995;-54
2022/02/19 12:34:27;;;;;;;;;;;19.70;45.50;;;;;;5072365;28;19999;-58
2022/02/19 12:36:53;;;;;;;;;;;19.70;45.60;;;;;;5061290;28;19916;-53
2022/02/19 12:39:18;;;;;;;;;;;19.60;45.80;;;;;;5075216;28;19974;-56
2022/02/19 12:41:44;;;;;;;;;;;19.60;46.00;;;;;;5062406;28;19920;-58
2022/02/19 12:44:10;;;;;;;;;;;19.60;45.90;;;;;;5080024;28;19920;-53
2022/02/19 12:46:37;;;;;;;;;;;19.60;46.00;;;;;;5043368;28;20399;-55
2022/02/19 12:49:03;;;;;;;;;;;19.60;46.40;;;;;;5071438;28;19920;-58
2022/02/19 12:51:28;;;;;;;;;;;19.60;46.40;;;;;;5060663;28;19967;-57
2022/02/19 12:53:54;;;;;;;;;;;19.60;46.80;;;;;;5063981;28;19916;-54
2022/02/19 12:56:19;;;;;;;;;;;19.60;47.20;;;;;;5076264;28;19921;-59
2022/02/19 12:58:48;;;;;;;;;;;19.60;47.90;;;;;;5077115;28;19919;-58
2022/02/19 13:01:13;;;;;;;;;;;19.60;48.60;;;;;;5084409;28;19923;-58
2022/02/19 13:03:43;;;;;;;;;;;19.60;49.50;;;;;;5069936;28;20347;-57
2022/02/19 13:06:08;;;;;;;;;;;19.60;50.40;;;;;;5074702;28;19920;-58
2022/02/19 13:08:37;;;;;;;;;;;19.70;51.40;;;;;;5078113;28;19916;-56
2022/02/19 13:11:02;;;;;;;;;;;19.70;52.50;;;;;;5083025;28;19985;-56
2022/02/19 13:13:28;;;;;;;;;;;19.70;53.30;;;;;;5053508;28;20012;-57
2022/02/19 13:15:54;;;;;;;;;;;19.80;54.00;;;;;;5076802;28;19920;-56
2022/02/19 13:18:19;;;;;;;;;;;19.80;54.70;;;;;;5071279;28;20550;-58
2022/02/19 13:20:45;;;;;;;;;;;19.80;54.60;;;;;;5054533;28;20496;-52
2022/02/19 13:23:10;;;;;;;;;;;19.80;54.70;;;;;;5074860;28;19967;-57
2022/02/19 13:25:36;;;;;;;;;;;19.80;53.90;;;;;;5075115;28;19987;-57
2022/02/19 13:28:05;;;;;;;;;;;19.80;54.00;;;;;;5072636;28;19917;-56
2022/02/19 13:30:31;;;;;;;;;;;19.70;53.80;;;;;;5072123;28;19918;-56
2022/02/19 13:32:56;;;;;;;;;;;19.70;53.60;;;;;;5070203;28;19912;-55
2022/02/19 13:35:22;;;;;;;;;;;19.70;53.70;;;;;;5034272;28;19920;-57
2022/02/19 13:37:48;;;;;;;;;;;19.70;53.80;;;;;;5077319;28;19938;-58
2022/02/19 13:40:14;;;;;;;;;;;19.70;53.70;;;;;;5052342;28;20843;-57
2022/02/19 13:42:46;;;;;;;;;;;19.70;53.60;;;;;;5049528;28;19997;-58
2022/02/19 13:45:25;;;;;;;;;;;19.70;53.50;;;;;;5048091;28;20011;-55
2022/02/19 13:47:51;;;;;;;;;;;19.70;53.30;;;;;;5067872;28;20333;-58
2022/02/19 13:50:21;;;;;;;;;;;19.70;53.30;;;;;;5055475;28;19951;-59
2022/02/19 13:52:46;;;;;;;;;;;19.70;53.30;;;;;;5049916;28;20385;-58
2022/02/19 13:55:13;;;;;;;;;;;19.70;53.30;;;;;;5073390;28;19912;-56
2022/02/19 13:57:39;;;;;;;;;;;19.70;53.10;;;;;;5059729;28;19998;-58
2022/02/19 14:00:05;;;;;;;;;;;19.70;53.20;;;;;;5074677;28;20559;-59
2022/02/19 14:02:30;;;;;;;;;;;19.70;53.10;;;;;;5050870;28;19912;-56
2022/02/19 14:04:59;;;;;;;;;;;19.70;53.20;;;;;;5066188;28;20417;-57
2022/02/19 14:07:24;;;;;;;;;;;19.70;53.20;;;;;;5072014;28;19920;-58
2022/02/19 14:10:03;;;;;;;;;;;19.70;53.10;;;;;;5083782;28;20221;-58
2022/02/19 14:12:34;;;;;;;;;;;19.70;53.20;;;;;;5072844;28;19952;-54
2022/02/19 14:15:00;;;;;;;;;;;19.70;53.10;;;;;;5076923;28;20491;-56
2022/02/19 14:17:29;;;;;;;;;;;19.70;53.00;;;;;;5061980;28;20015;-56
2022/02/19 14:19:55;;;;;;;;;;;19.70;53.50;;;;;;5059346;28;20391;-55
2022/02/19 14:22:22;;;;;;;;;;;19.80;53.00;;;;;;5050277;28;20042;-61